createdAt,value
2022-09-16T00:00:03.449Z,4.14
2022-09-16T00:01:03.448Z,4.69
2022-09-16T00:01:43.528Z,5.00
2022-09-16T00:02:23.410Z,4.93
2022-09-16T00:03:11.426Z,4.69
2022-09-16T00:03:45.603Z,4.31
2022-09-16T00:04:32.373Z,4.44
2022-09-16T00:05:06.945Z,5.18
2022-09-16T00:05:59.366Z,4.56
2022-09-16T00:06:33.092Z,4.21
2022-09-16T00:07:20.383Z,3.67
2022-09-16T00:07:55.680Z,3.54
2022-09-16T00:08:36.441Z,3.30
2022-09-16T00:09:10.426Z,4.16
2022-09-16T00:09:44.077Z,4.86
2022-09-16T00:10:25.362Z,4.82
2022-09-16T00:10:59.410Z,5.19
2022-09-16T00:11:36.935Z,6.10
2022-09-16T00:12:18.361Z,4.84
2022-09-16T00:12:59.483Z,3.92
2022-09-16T00:13:39.436Z,4.94
2022-09-16T00:14:20.513Z,5.40
2022-09-16T00:15:01.361Z,5.74
2022-09-16T00:15:41.516Z,4.35
2022-09-16T00:16:31.456Z,4.39
2022-09-16T00:17:11.428Z,4.71
2022-09-16T00:17:51.446Z,5.01
2022-09-16T00:18:31.451Z,4.91
2022-09-16T00:19:11.400Z,6.24
2022-09-16T00:19:52.726Z,4.63
2022-09-16T00:20:34.398Z,4.55
2022-09-16T00:21:16.470Z,5.00
2022-09-16T00:21:56.392Z,4.18
2022-09-16T00:22:37.459Z,3.59
2022-09-16T00:23:18.362Z,5.01
2022-09-16T00:23:58.430Z,5.69
2022-09-16T00:24:38.366Z,4.10
2022-09-16T00:25:19.426Z,3.26
2022-09-16T00:26:01.406Z,3.49
2022-09-16T00:26:41.442Z,4.21
2022-09-16T00:27:21.362Z,4.30
2022-09-16T00:28:01.566Z,4.93
2022-09-16T00:28:41.333Z,3.58
2022-09-16T00:29:21.377Z,3.70
2022-09-16T00:30:01.405Z,4.36
2022-09-16T00:30:42.494Z,4.39
2022-09-16T00:31:23.385Z,5.30
2022-09-16T00:32:03.413Z,5.38
2022-09-16T00:32:43.591Z,4.65
2022-09-16T00:33:24.425Z,3.45
2022-09-16T00:34:04.365Z,3.94
2022-09-16T00:34:44.469Z,4.29
2022-09-16T00:35:24.390Z,4.21
2022-09-16T00:36:20.437Z,4.72
2022-09-16T00:37:00.359Z,4.13
2022-09-16T00:37:40.432Z,4.17
2022-09-16T00:38:20.323Z,4.50
2022-09-16T00:39:01.427Z,3.70
2022-09-16T00:39:43.332Z,3.58
2022-09-16T00:40:23.464Z,3.90
2022-09-16T00:41:03.370Z,4.03
2022-09-16T00:41:44.406Z,3.95
2022-09-16T00:42:25.334Z,4.05
2022-09-16T00:43:06.387Z,4.07
2022-09-16T00:44:09.332Z,3.14
2022-09-16T00:45:09.365Z,4.78
2022-09-16T00:45:53.394Z,4.76
2022-09-16T00:46:41.444Z,5.13
2022-09-16T00:47:15.474Z,5.75
2022-09-16T00:47:56.256Z,4.05
2022-09-16T00:48:37.471Z,4.04
2022-09-16T00:49:22.456Z,4.09
2022-09-16T00:50:01.495Z,4.04
2022-09-16T00:50:53.389Z,3.22
2022-09-16T00:51:27.428Z,3.41
2022-09-16T00:52:10.378Z,4.78
2022-09-16T00:52:51.456Z,5.22
2022-09-16T00:53:40.706Z,4.44
2022-09-16T00:54:23.421Z,5.10
2022-09-16T00:55:03.298Z,4.05
2022-09-16T00:55:44.435Z,3.92
2022-09-16T00:56:26.341Z,4.36
2022-09-16T00:57:07.474Z,4.01
2022-09-16T00:57:48.357Z,4.28
2022-09-16T00:59:02.204Z,3.71
2022-09-16T00:59:46.330Z,4.59
2022-09-16T01:00:27.443Z,5.26
2022-09-16T01:01:08.396Z,5.14
2022-09-16T01:01:49.625Z,5.00
2022-09-16T01:02:36.336Z,4.61
2022-09-16T01:03:18.352Z,4.86
2022-09-16T01:04:33.291Z,4.82
2022-09-16T01:05:34.330Z,4.13
2022-09-16T01:06:29.329Z,4.04
2022-09-16T01:07:23.319Z,3.91
2022-09-16T01:08:18.436Z,4.38
2022-09-16T01:09:12.308Z,5.81
2022-09-16T01:10:06.319Z,5.22
2022-09-16T01:11:00.291Z,3.22
2022-09-16T01:11:54.371Z,4.05
2022-09-16T01:12:49.318Z,3.44
2022-09-16T01:13:36.386Z,3.85
2022-09-16T01:14:29.975Z,4.89
2022-09-16T01:15:18.316Z,4.06
2022-09-16T01:16:13.512Z,4.72
2022-09-16T01:17:43.330Z,5.41
2022-09-16T01:18:53.358Z,4.32
2022-09-16T01:20:31.299Z,4.38
2022-09-16T01:21:31.287Z,3.60
2022-09-16T01:23:02.356Z,3.25
2022-09-16T01:24:48.358Z,3.81
2022-09-16T01:26:20.304Z,4.10
2022-09-16T01:27:39.339Z,3.24
2022-09-16T01:29:02.313Z,4.28
2022-09-16T01:30:52.415Z,4.88
2022-09-16T01:31:51.355Z,4.35
2022-09-16T01:33:16.395Z,4.75
2022-09-16T01:34:33.328Z,5.22
2022-09-16T01:35:52.383Z,3.71
2022-09-16T01:37:19.338Z,3.77
2022-09-16T01:38:54.386Z,3.84
2022-09-16T01:40:28.425Z,4.47
2022-09-16T01:41:41.330Z,4.61
2022-09-16T01:42:50.394Z,4.20
2022-09-16T01:44:01.327Z,3.49
2022-09-16T01:45:17.505Z,3.15
2022-09-16T01:46:11.384Z,4.26
2022-09-16T01:47:05.296Z,3.70
2022-09-16T01:47:56.196Z,3.75
2022-09-16T01:49:05.299Z,4.01
2022-09-16T01:50:07.147Z,5.00
2022-09-16T01:51:24.285Z,5.79
2022-09-16T01:52:40.387Z,4.93
2022-09-16T01:53:43.355Z,4.90
2022-09-16T01:54:39.260Z,6.35
2022-09-16T01:55:46.325Z,5.70
2022-09-16T01:56:36.230Z,4.63
2022-09-16T01:57:28.423Z,5.71
2022-09-16T01:58:40.292Z,4.57
2022-09-16T01:59:28.336Z,4.40
2022-09-16T02:00:21.240Z,3.72
2022-09-16T02:01:11.348Z,4.63
2022-09-16T02:02:07.451Z,5.05
2022-09-16T02:03:02.514Z,5.09
2022-09-16T02:03:46.295Z,4.81
2022-09-16T02:04:53.315Z,3.85
2022-09-16T02:05:56.268Z,4.09
2022-09-16T02:06:37.313Z,4.86
2022-09-16T02:07:18.254Z,5.32
2022-09-16T02:08:08.320Z,6.04
2022-09-16T02:09:09.278Z,3.91
2022-09-16T02:09:58.354Z,4.10
2022-09-16T02:10:48.320Z,4.59
2022-09-16T02:11:29.442Z,5.00
2022-09-16T02:12:15.272Z,4.53
2022-09-16T02:12:58.327Z,3.86
2022-09-16T02:13:47.323Z,3.54
2022-09-16T02:14:42.265Z,4.70
2022-09-16T02:15:22.013Z,4.01
2022-09-16T02:16:36.260Z,3.54
2022-09-16T02:17:13.265Z,4.30
2022-09-16T02:18:08.244Z,3.38
2022-09-16T02:18:42.668Z,3.90
2022-09-16T02:19:40.245Z,3.58
2022-09-16T02:20:25.225Z,3.49
2022-09-16T02:21:06.317Z,3.30
2022-09-16T02:21:48.265Z,3.85
2022-09-16T02:22:51.304Z,4.71
2022-09-16T02:23:46.261Z,4.16
2022-09-16T02:24:28.299Z,4.19
2022-09-16T02:25:10.292Z,4.69
2022-09-16T02:25:53.287Z,4.13
2022-09-16T02:26:37.231Z,3.95
2022-09-16T02:27:23.414Z,4.21
2022-09-16T02:28:04.313Z,4.74
2022-09-16T02:28:49.330Z,4.79
2022-09-16T02:29:34.265Z,3.49
2022-09-16T02:30:26.319Z,3.51
2022-09-16T02:31:03.617Z,3.19
2022-09-16T02:31:55.585Z,3.30
2022-09-16T02:32:32.541Z,3.44
2022-09-16T02:33:21.407Z,4.36
2022-09-16T02:34:00.663Z,4.97
2022-09-16T02:34:56.213Z,3.91
2022-09-16T02:35:45.330Z,4.16
2022-09-16T02:36:22.336Z,4.38
2022-09-16T02:37:20.289Z,3.63
2022-09-16T02:38:08.272Z,4.95
2022-09-16T02:39:00.233Z,4.28
2022-09-16T02:39:39.424Z,3.88
2022-09-16T02:41:04.247Z,4.45
2022-09-16T02:41:38.261Z,4.50
2022-09-16T02:42:25.205Z,4.57
2022-09-16T02:42:59.290Z,5.38
2022-09-16T02:43:47.322Z,3.84
2022-09-16T02:44:21.276Z,3.91
2022-09-16T02:45:09.261Z,3.75
2022-09-16T02:46:16.324Z,3.85
2022-09-16T02:47:38.205Z,5.03
2022-09-16T02:49:07.249Z,5.21
2022-09-16T02:50:08.257Z,4.90
2022-09-16T02:51:32.320Z,4.84
2022-09-16T02:52:47.210Z,4.84
2022-09-16T02:54:33.188Z,3.89
2022-09-16T02:55:47.220Z,6.19
2022-09-16T02:56:52.291Z,6.99
2022-09-16T02:57:46.185Z,4.34
2022-09-16T02:58:40.180Z,4.16
2022-09-16T02:59:35.199Z,4.90
2022-09-16T03:00:29.213Z,4.14
2022-09-16T03:01:25.220Z,5.21
2022-09-16T03:02:12.280Z,5.16
2022-09-16T03:02:46.355Z,5.55
2022-09-16T03:03:33.204Z,4.43
2022-09-16T03:04:07.268Z,4.54
2022-09-16T03:04:54.214Z,5.90
2022-09-16T03:05:35.265Z,6.03
2022-09-16T03:06:27.206Z,4.63
2022-09-16T03:07:01.415Z,4.89
2022-09-16T03:07:43.275Z,5.13
2022-09-16T03:08:23.332Z,4.34
2022-09-16T03:09:06.234Z,4.79
2022-09-16T03:09:50.264Z,5.24
2022-09-16T03:10:35.184Z,5.20
2022-09-16T03:11:41.321Z,4.50
2022-09-16T03:12:47.217Z,5.89
2022-09-16T03:13:44.271Z,5.22
2022-09-16T03:14:45.201Z,4.57
2022-09-16T03:15:47.295Z,5.22
2022-09-16T03:16:56.205Z,4.65
2022-09-16T03:18:01.225Z,4.34
2022-09-16T03:19:19.202Z,4.71
2022-09-16T03:20:36.212Z,4.44
2022-09-16T03:22:06.219Z,3.83
2022-09-16T03:23:33.223Z,3.04
2022-09-16T03:25:03.173Z,3.47
2022-09-16T03:26:23.163Z,4.24
2022-09-16T03:27:36.187Z,4.07
2022-09-16T03:28:36.218Z,3.25
2022-09-16T03:29:47.202Z,5.36
2022-09-16T03:30:47.240Z,5.24
2022-09-16T03:31:46.259Z,3.90
2022-09-16T03:32:46.246Z,4.05
2022-09-16T03:33:56.211Z,4.94
2022-09-16T03:35:07.175Z,4.30
2022-09-16T03:36:02.201Z,4.32
2022-09-16T03:37:06.169Z,4.99
2022-09-16T03:38:00.148Z,5.68
2022-09-16T03:38:55.265Z,4.71
2022-09-16T03:39:36.186Z,4.14
2022-09-16T03:40:19.343Z,3.08
2022-09-16T03:41:00.247Z,3.58
2022-09-16T03:41:41.283Z,4.59
2022-09-16T03:42:21.173Z,4.41
2022-09-16T03:43:01.240Z,4.03
2022-09-16T03:43:42.138Z,5.44
2022-09-16T03:44:22.173Z,5.06
2022-09-16T03:44:56.243Z,3.94
2022-09-16T03:45:43.199Z,5.06
2022-09-16T03:46:18.266Z,5.24
2022-09-16T03:47:05.144Z,5.36
2022-09-16T03:47:39.297Z,5.60
2022-09-16T03:48:26.173Z,3.74
2022-09-16T03:49:00.315Z,4.79
2022-09-16T03:49:47.173Z,5.55
2022-09-16T03:50:21.233Z,4.43
2022-09-16T03:51:08.145Z,4.47
2022-09-16T03:51:42.212Z,3.39
2022-09-16T03:52:29.146Z,4.28
2022-09-16T03:53:03.212Z,3.83
2022-09-16T03:53:50.341Z,3.00
2022-09-16T03:54:24.216Z,3.67
2022-09-16T03:55:12.216Z,4.68
2022-09-16T03:55:46.833Z,3.77
2022-09-16T03:56:34.224Z,3.88
2022-09-16T03:57:08.204Z,3.90
2022-09-16T03:57:55.139Z,3.60
2022-09-16T03:58:29.220Z,5.16
2022-09-16T03:59:16.149Z,4.64
2022-09-16T03:59:50.204Z,4.14
2022-09-16T04:00:37.209Z,5.09
2022-09-16T04:01:11.233Z,5.80
2022-09-16T04:01:58.227Z,7.19
2022-09-16T04:02:32.295Z,5.64
2022-09-16T04:03:19.132Z,3.83
2022-09-16T04:03:53.349Z,4.54
2022-09-16T04:04:40.124Z,5.20
2022-09-16T04:05:15.243Z,4.61
2022-09-16T04:06:03.349Z,4.20
2022-09-16T04:06:37.184Z,4.40
2022-09-16T04:07:24.167Z,4.60
2022-09-16T04:07:58.219Z,5.66
2022-09-16T04:08:46.227Z,5.74
2022-09-16T04:09:20.277Z,3.53
2022-09-16T04:10:08.177Z,2.79
2022-09-16T04:10:42.178Z,3.39
2022-09-16T04:11:23.157Z,3.33
2022-09-16T04:12:03.388Z,4.96
2022-09-16T04:12:43.175Z,6.29
2022-09-16T04:13:23.226Z,7.31
2022-09-16T04:14:03.130Z,6.90
2022-09-16T04:14:43.279Z,7.97
2022-09-16T04:15:23.205Z,6.91
2022-09-16T04:16:03.550Z,4.03
2022-09-16T04:16:45.373Z,4.75
2022-09-16T04:17:26.235Z,5.45
2022-09-16T04:18:07.108Z,3.69
2022-09-16T04:18:47.226Z,3.42
2022-09-16T04:19:28.110Z,3.64
2022-09-16T04:20:08.281Z,4.39
2022-09-16T04:20:49.122Z,2.76
2022-09-16T04:21:29.423Z,3.29
2022-09-16T04:22:09.200Z,4.95
2022-09-16T04:22:49.239Z,5.40
2022-09-16T04:23:32.133Z,5.38
2022-09-16T04:24:13.691Z,5.32
2022-09-16T04:24:55.145Z,6.15
2022-09-16T04:25:35.203Z,5.25
2022-09-16T04:26:17.107Z,4.24
2022-09-16T04:26:57.211Z,5.88
2022-09-16T04:27:37.162Z,5.76
2022-09-16T04:28:17.168Z,5.55
2022-09-16T04:29:01.097Z,5.69
2022-09-16T04:29:41.226Z,5.24
2022-09-16T04:30:22.096Z,4.84
2022-09-16T04:31:07.180Z,5.24
2022-09-16T04:31:47.097Z,5.21
2022-09-16T04:32:27.177Z,4.06
2022-09-16T04:33:07.148Z,3.35
2022-09-16T04:33:48.252Z,3.86
2022-09-16T04:34:28.117Z,3.91
2022-09-16T04:35:08.169Z,4.20
2022-09-16T04:35:48.097Z,3.06
2022-09-16T04:36:28.171Z,4.31
2022-09-16T04:37:08.097Z,3.25
2022-09-16T04:37:48.178Z,4.01
2022-09-16T04:38:29.115Z,4.19
2022-09-16T04:39:09.148Z,4.68
2022-09-16T04:39:49.143Z,4.90
2022-09-16T04:40:29.313Z,4.39
2022-09-16T04:41:13.129Z,3.55
2022-09-16T04:41:54.200Z,4.44
2022-09-16T04:42:34.102Z,4.95
2022-09-16T04:43:14.150Z,4.96
2022-09-16T04:44:05.224Z,4.40
2022-09-16T04:44:46.151Z,4.88
2022-09-16T04:45:27.094Z,5.20
2022-09-16T04:46:08.631Z,3.91
2022-09-16T04:46:48.110Z,4.45
2022-09-16T04:47:29.127Z,4.95
2022-09-16T04:48:10.109Z,6.40
2022-09-16T04:48:50.164Z,6.34
2022-09-16T04:49:30.129Z,5.76
2022-09-16T04:50:10.730Z,4.82
2022-09-16T04:50:51.099Z,4.60
2022-09-16T04:51:33.250Z,5.01
2022-09-16T04:52:13.075Z,5.07
2022-09-16T04:52:53.224Z,6.06
2022-09-16T04:53:34.171Z,5.47
2022-09-16T04:54:14.212Z,6.86
2022-09-16T04:54:54.126Z,7.91
2022-09-16T04:55:34.241Z,6.99
2022-09-16T04:56:23.104Z,6.63
2022-09-16T04:57:03.165Z,6.18
2022-09-16T04:57:44.082Z,7.72
2022-09-16T04:58:24.162Z,6.72
2022-09-16T04:59:10.177Z,6.39
2022-09-16T04:59:51.156Z,6.38
2022-09-16T05:00:32.201Z,7.13
2022-09-16T05:01:18.263Z,5.85
2022-09-16T05:01:59.107Z,4.70
2022-09-16T05:02:39.192Z,5.85
2022-09-16T05:03:19.115Z,6.94
2022-09-16T05:04:02.388Z,5.74
2022-09-16T05:04:43.063Z,8.05
2022-09-16T05:05:23.830Z,8.20
2022-09-16T05:06:15.953Z,8.02
2022-09-16T05:06:59.314Z,9.61
2022-09-16T05:07:39.145Z,10.63
2022-09-16T05:08:19.155Z,9.43
2022-09-16T05:09:01.114Z,5.88
2022-09-16T05:09:41.233Z,6.81
2022-09-16T05:10:22.059Z,8.18
2022-09-16T05:11:02.242Z,8.43
2022-09-16T05:11:45.149Z,9.69
2022-09-16T05:12:25.190Z,11.01
2022-09-16T05:13:05.086Z,10.88
2022-09-16T05:13:46.188Z,11.40
2022-09-16T05:14:27.084Z,10.04
2022-09-16T05:15:07.751Z,8.00
2022-09-16T05:15:51.239Z,9.35
2022-09-16T05:16:31.240Z,7.50
2022-09-16T05:17:11.129Z,7.70
2022-09-16T05:17:51.831Z,7.53
2022-09-16T05:18:33.070Z,7.03
2022-09-16T05:19:13.202Z,8.45
2022-09-16T05:19:54.077Z,10.74
2022-09-16T05:20:34.130Z,10.84
2022-09-16T05:21:18.061Z,9.07
2022-09-16T05:21:58.165Z,7.09
2022-09-16T05:22:38.092Z,6.76
2022-09-16T05:23:18.192Z,5.35
2022-09-16T05:24:00.130Z,5.25
2022-09-16T05:24:44.481Z,5.47
2022-09-16T05:25:25.076Z,4.35
2022-09-16T05:26:12.210Z,4.54
2022-09-16T05:26:53.077Z,4.64
2022-09-16T05:27:36.205Z,5.36
2022-09-16T05:28:17.080Z,4.71
2022-09-16T05:28:57.100Z,3.24
2022-09-16T05:29:37.040Z,4.30
2022-09-16T05:30:20.688Z,4.71
2022-09-16T05:31:17.088Z,4.50
2022-09-16T05:31:57.970Z,4.21
2022-09-16T05:32:39.117Z,4.97
2022-09-16T05:33:26.088Z,4.74
2022-09-16T05:34:35.106Z,5.86
2022-09-16T05:35:29.052Z,4.13
2022-09-16T05:36:27.048Z,4.36
2022-09-16T05:37:21.040Z,5.20
2022-09-16T05:38:15.060Z,3.89
2022-09-16T05:39:21.046Z,4.41
2022-09-16T05:39:55.425Z,5.00
2022-09-16T05:40:36.040Z,4.59
2022-09-16T05:41:16.285Z,5.20
2022-09-16T05:42:00.069Z,5.55
2022-09-16T05:42:40.168Z,4.28
2022-09-16T05:43:21.155Z,3.65
2022-09-16T05:44:08.143Z,3.90
2022-09-16T05:45:02.085Z,4.20
2022-09-16T05:45:56.095Z,6.07
2022-09-16T05:46:50.074Z,4.86
2022-09-16T05:47:44.064Z,4.31
2022-09-16T05:48:39.033Z,4.86
2022-09-16T05:49:27.075Z,7.06
2022-09-16T05:50:01.077Z,8.45
2022-09-16T05:50:48.099Z,8.31
2022-09-16T05:51:24.126Z,6.05
2022-09-16T05:52:11.054Z,4.94
2022-09-16T05:52:45.110Z,5.39
2022-09-16T05:53:34.053Z,5.75
2022-09-16T05:54:08.166Z,5.49
2022-09-16T05:54:48.052Z,4.31
2022-09-16T05:55:28.139Z,5.05
2022-09-16T05:56:15.038Z,5.01
2022-09-16T05:56:55.083Z,4.80
2022-09-16T05:57:35.021Z,5.34
2022-09-16T05:58:15.125Z,4.56
2022-09-16T05:58:57.025Z,3.83
2022-09-16T05:59:37.106Z,5.57
2022-09-16T06:00:19.105Z,5.39
2022-09-16T06:01:11.277Z,3.70
2022-09-16T06:01:52.085Z,4.59
2022-09-16T06:02:32.185Z,5.04
2022-09-16T06:03:15.036Z,3.78
2022-09-16T06:03:57.148Z,3.51
2022-09-16T06:04:38.037Z,3.20
2022-09-16T06:05:18.277Z,3.81
2022-09-16T06:05:58.069Z,6.19
2022-09-16T06:06:44.203Z,7.24
2022-09-16T06:07:24.069Z,6.32
2022-09-16T06:08:04.081Z,6.47
2022-09-16T06:08:45.023Z,6.01
2022-09-16T06:09:28.365Z,6.10
2022-09-16T06:10:09.023Z,5.56
2022-09-16T06:10:50.161Z,4.96
2022-09-16T06:11:31.071Z,4.40
2022-09-16T06:12:12.167Z,4.69
2022-09-16T06:12:53.130Z,4.45
2022-09-16T06:13:33.205Z,3.29
2022-09-16T06:14:14.009Z,3.55
2022-09-16T06:14:54.071Z,4.65
2022-09-16T06:15:35.071Z,6.21
2022-09-16T06:16:17.802Z,7.35
2022-09-16T06:16:58.034Z,5.68
2022-09-16T06:17:38.081Z,5.14
2022-09-16T06:18:22.022Z,3.89
2022-09-16T06:19:03.117Z,4.38
2022-09-16T06:19:44.013Z,4.10
2022-09-16T06:20:24.124Z,4.05
2022-09-16T06:21:05.001Z,3.75
2022-09-16T06:21:45.130Z,3.71
2022-09-16T06:22:25.058Z,4.18
2022-09-16T06:23:05.071Z,4.51
2022-09-16T06:23:46.027Z,4.65
2022-09-16T06:24:27.217Z,5.00
2022-09-16T06:25:07.045Z,5.24
2022-09-16T06:25:47.491Z,3.72
2022-09-16T06:26:33.006Z,4.09
2022-09-16T06:27:13.065Z,4.15
2022-09-16T06:27:54.052Z,4.40
2022-09-16T06:28:34.161Z,3.84
2022-09-16T06:29:15.019Z,5.16
2022-09-16T06:29:55.055Z,4.51
2022-09-16T06:30:36.079Z,3.65
2022-09-16T06:31:23.143Z,4.01
2022-09-16T06:32:04.022Z,4.79
2022-09-16T06:32:44.126Z,5.24
2022-09-16T06:33:24.049Z,4.89
2022-09-16T06:34:05.528Z,4.47
2022-09-16T06:34:44.989Z,4.70
2022-09-16T06:35:25.077Z,4.38
2022-09-16T06:36:09.976Z,4.68
2022-09-16T06:36:50.114Z,4.56
2022-09-16T06:37:31.032Z,4.24
2022-09-16T06:38:11.072Z,3.81
2022-09-16T06:38:53.030Z,3.47
2022-09-16T06:39:34.078Z,4.41
2022-09-16T06:40:15.073Z,4.34
2022-09-16T06:40:55.037Z,4.46
2022-09-16T06:41:36.989Z,4.54
2022-09-16T06:42:17.074Z,4.18
2022-09-16T06:43:03.063Z,4.78
2022-09-16T06:43:44.378Z,4.09
2022-09-16T06:44:24.260Z,4.60
2022-09-16T06:45:04.300Z,4.84
2022-09-16T06:45:44.049Z,4.94
2022-09-16T06:46:28.265Z,4.85
2022-09-16T06:47:07.993Z,6.21
2022-09-16T06:47:48.128Z,7.07
2022-09-16T06:48:28.976Z,5.44
2022-09-16T06:49:11.083Z,5.18
2022-09-16T06:49:53.019Z,6.49
2022-09-16T06:50:33.063Z,6.90
2022-09-16T06:51:17.986Z,5.07
2022-09-16T06:51:58.075Z,4.74
2022-09-16T06:52:38.993Z,5.32
2022-09-16T06:53:19.081Z,5.38
2022-09-16T06:54:03.451Z,4.82
2022-09-16T06:54:44.100Z,3.60
2022-09-16T06:55:24.001Z,4.15
2022-09-16T06:56:14.103Z,4.47
2022-09-16T06:56:53.985Z,5.13
2022-09-16T06:57:34.062Z,6.24
2022-09-16T06:58:13.990Z,5.09
2022-09-16T06:58:58.107Z,3.99
2022-09-16T06:59:38.985Z,3.95
2022-09-16T07:00:20.077Z,3.59
2022-09-16T07:01:00.111Z,3.80
2022-09-16T07:01:41.127Z,4.19
2022-09-16T07:02:21.021Z,4.22
2022-09-16T07:03:02.041Z,3.01
2022-09-16T07:03:48.064Z,5.21
2022-09-16T07:04:28.105Z,6.15
2022-09-16T07:05:08.969Z,6.88
2022-09-16T07:05:49.032Z,6.19
2022-09-16T07:06:58.305Z,6.30
2022-09-16T07:07:32.033Z,6.03
2022-09-16T07:08:12.974Z,5.94
2022-09-16T07:08:54.025Z,6.60
2022-09-16T07:09:34.982Z,4.82
2022-09-16T07:10:16.093Z,5.47
2022-09-16T07:11:07.991Z,5.30
2022-09-16T07:11:48.014Z,4.65
2022-09-16T07:12:22.255Z,3.39
2022-09-16T07:13:10.007Z,4.15
2022-09-16T07:13:44.014Z,4.64
2022-09-16T07:14:31.956Z,5.65
2022-09-16T07:15:06.012Z,5.51
2022-09-16T07:16:16.514Z,4.84
2022-09-16T07:16:47.144Z,6.66
2022-09-16T07:17:29.997Z,7.69
2022-09-16T07:18:10.282Z,10.94
2022-09-16T07:18:50.946Z,13.39
2022-09-16T07:19:32.244Z,9.09
2022-09-16T07:20:12.937Z,5.00
2022-09-16T07:20:53.046Z,5.93
2022-09-16T07:21:36.966Z,6.80
2022-09-16T07:22:17.018Z,5.84
2022-09-16T07:22:59.976Z,5.70
2022-09-16T07:23:42.088Z,6.49
2022-09-16T07:24:21.961Z,6.47
2022-09-16T07:25:02.063Z,5.45
2022-09-16T07:25:41.942Z,5.53
2022-09-16T07:26:28.036Z,5.32
2022-09-16T07:27:07.941Z,3.06
2022-09-16T07:27:48.303Z,4.06
2022-09-16T07:28:28.009Z,4.78
2022-09-16T07:29:14.076Z,5.20
2022-09-16T07:29:53.952Z,4.95
2022-09-16T07:30:34.381Z,3.75
2022-09-16T07:31:19.066Z,2.86
2022-09-16T07:32:00.465Z,3.65
2022-09-16T07:32:39.936Z,3.50
2022-09-16T07:33:20.008Z,4.49
2022-09-16T07:34:04.721Z,3.96
2022-09-16T07:34:44.993Z,4.24
2022-09-16T07:35:25.973Z,5.29
2022-09-16T07:36:07.110Z,6.05
2022-09-16T07:36:51.949Z,5.61
2022-09-16T07:37:32.121Z,5.82
2022-09-16T07:38:11.943Z,4.89
2022-09-16T07:38:53.148Z,3.83
2022-09-16T07:39:33.956Z,4.40
2022-09-16T07:40:14.112Z,3.90
2022-09-16T07:40:53.945Z,3.20
2022-09-16T07:41:38.050Z,5.55
2022-09-16T07:42:17.993Z,6.07
2022-09-16T07:42:58.010Z,5.07
2022-09-16T07:43:38.937Z,4.93
2022-09-16T07:44:22.062Z,3.97
2022-09-16T07:45:02.078Z,3.90
2022-09-16T07:45:43.024Z,4.56
2022-09-16T07:46:25.929Z,3.91
2022-09-16T07:47:06.667Z,4.68
2022-09-16T07:47:46.918Z,4.25
2022-09-16T07:48:30.116Z,5.44
2022-09-16T07:49:15.938Z,4.04
2022-09-16T07:49:56.167Z,3.63
2022-09-16T07:50:35.961Z,4.38
2022-09-16T07:51:25.993Z,4.68
2022-09-16T07:52:06.929Z,4.29
2022-09-16T07:52:46.995Z,3.97
2022-09-16T07:53:29.575Z,3.60
2022-09-16T07:54:15.104Z,4.44
2022-09-16T07:54:56.964Z,4.40
2022-09-16T07:55:43.993Z,4.51
2022-09-16T07:56:37.946Z,3.63
2022-09-16T07:57:31.936Z,3.63
2022-09-16T07:58:25.934Z,2.83
2022-09-16T07:59:23.961Z,3.22
2022-09-16T08:00:18.917Z,3.39
2022-09-16T08:01:06.989Z,3.06
2022-09-16T08:01:43.688Z,4.63
2022-09-16T08:02:30.965Z,4.09
2022-09-16T08:03:11.073Z,5.05
2022-09-16T08:03:52.951Z,5.91
2022-09-16T08:04:34.023Z,4.03
2022-09-16T08:05:15.907Z,4.29
2022-09-16T08:05:55.992Z,5.39
2022-09-16T08:06:38.932Z,7.53
2022-09-16T08:07:19.018Z,6.26
2022-09-16T08:07:58.927Z,6.78
2022-09-16T08:08:41.037Z,6.85
2022-09-16T08:09:38.515Z,6.71
2022-09-16T08:10:22.168Z,5.24
2022-09-16T08:11:02.926Z,4.29
2022-09-16T08:11:49.966Z,3.22
2022-09-16T08:12:23.618Z,2.97
2022-09-16T08:13:10.934Z,3.91
2022-09-16T08:13:46.236Z,4.66
2022-09-16T08:14:33.925Z,4.75
2022-09-16T08:15:08.689Z,3.85
2022-09-16T08:15:56.920Z,3.99
2022-09-16T08:16:32.987Z,4.40
2022-09-16T08:17:14.019Z,4.49
2022-09-16T08:17:48.085Z,4.06
2022-09-16T08:18:21.857Z,4.70
2022-09-16T08:19:03.931Z,4.19
2022-09-16T08:19:39.220Z,4.51
2022-09-16T08:20:12.682Z,5.07
2022-09-16T08:20:53.918Z,3.59
2022-09-16T08:21:34.007Z,3.47
2022-09-16T08:22:07.873Z,4.32
2022-09-16T08:22:47.949Z,4.63
2022-09-16T08:23:21.971Z,3.44
2022-09-16T08:23:56.899Z,3.59
2022-09-16T08:24:36.916Z,3.63
2022-09-16T08:25:10.984Z,3.71
2022-09-16T08:25:45.432Z,4.70
2022-09-16T08:26:25.893Z,2.76
2022-09-16T08:26:59.987Z,4.50
2022-09-16T08:27:36.676Z,4.69
2022-09-16T08:28:21.932Z,4.45
2022-09-16T08:29:08.269Z,3.59
2022-09-16T08:29:43.614Z,3.88
2022-09-16T08:30:23.991Z,4.53
2022-09-16T08:30:57.975Z,5.85
2022-09-16T08:31:31.720Z,7.46
2022-09-16T08:32:11.889Z,5.41
2022-09-16T08:32:45.957Z,4.03
2022-09-16T08:33:28.931Z,6.51
2022-09-16T08:34:09.967Z,7.32
2022-09-16T08:34:49.926Z,3.54
2022-09-16T08:35:30.965Z,3.28
2022-09-16T08:36:26.890Z,5.39
2022-09-16T08:37:07.973Z,6.99
2022-09-16T08:37:50.142Z,5.11
2022-09-16T08:38:36.941Z,5.01
2022-09-16T08:39:11.886Z,4.97
2022-09-16T08:40:01.062Z,4.20
2022-09-16T08:40:36.560Z,3.08
2022-09-16T08:42:01.884Z,3.36
2022-09-16T08:43:08.137Z,3.78
2022-09-16T08:44:38.962Z,3.47
2022-09-16T08:46:10.199Z,2.70
2022-09-16T08:47:09.897Z,3.14
2022-09-16T08:48:00.445Z,3.09
2022-09-16T08:49:05.113Z,4.16
2022-09-16T08:49:54.002Z,5.09
2022-09-16T08:50:41.940Z,4.51
2022-09-16T08:51:25.881Z,4.36
2022-09-16T08:52:37.950Z,4.75
2022-09-16T08:53:40.893Z,3.51
2022-09-16T08:54:46.013Z,3.85
2022-09-16T08:55:37.940Z,4.75
2022-09-16T08:56:24.981Z,3.08
2022-09-16T08:57:08.874Z,3.09
2022-09-16T08:58:03.973Z,3.10
2022-09-16T08:58:49.900Z,3.83
2022-09-16T08:59:33.971Z,3.85
2022-09-16T09:00:24.877Z,3.29
2022-09-16T09:01:11.015Z,4.24
2022-09-16T09:01:53.159Z,3.40
2022-09-16T09:03:32.869Z,2.85
2022-09-16T09:04:07.952Z,4.35
2022-09-16T09:04:54.858Z,5.60
2022-09-16T09:05:57.955Z,5.07
2022-09-16T09:06:40.919Z,4.49
2022-09-16T09:07:38.989Z,3.88
2022-09-16T09:08:42.878Z,4.59
2022-09-16T09:09:56.002Z,3.61
2022-09-16T09:10:59.867Z,2.75
2022-09-16T09:12:03.881Z,4.05
2022-09-16T09:13:21.724Z,5.28
2022-09-16T09:14:47.865Z,4.31
2022-09-16T09:15:58.910Z,3.95
2022-09-16T09:16:59.868Z,4.39
2022-09-16T09:18:08.184Z,5.21
2022-09-16T09:19:19.951Z,5.05
2022-09-16T09:20:47.900Z,4.97
2022-09-16T09:21:39.947Z,4.34
2022-09-16T09:22:55.901Z,3.38
2022-09-16T09:23:41.882Z,3.29
2022-09-16T09:24:24.913Z,3.51
2022-09-16T09:25:28.855Z,3.99
2022-09-16T09:26:55.039Z,4.46
2022-09-16T09:28:22.857Z,3.91
2022-09-16T09:29:11.925Z,3.49
2022-09-16T09:30:35.884Z,4.44
2022-09-16T09:32:15.828Z,3.94
2022-09-16T09:33:44.781Z,3.44
2022-09-16T09:35:07.878Z,4.00
2022-09-16T09:36:42.953Z,4.18
2022-09-16T09:38:11.849Z,4.56
2022-09-16T09:39:50.046Z,3.54
2022-09-16T09:40:58.880Z,4.14
2022-09-16T09:41:53.902Z,4.63
2022-09-16T09:43:17.838Z,3.17
2022-09-16T09:44:13.055Z,3.69
2022-09-16T09:45:14.829Z,4.34
2022-09-16T09:46:13.881Z,4.54
2022-09-16T09:47:12.839Z,4.15
2022-09-16T09:48:30.896Z,2.71
2022-09-16T09:49:50.831Z,3.16
2022-09-16T09:51:00.828Z,2.83
2022-09-16T09:52:06.998Z,2.83
2022-09-16T09:53:18.958Z,3.22
2022-09-16T09:54:06.915Z,3.01
2022-09-16T09:54:52.926Z,4.05
2022-09-16T09:55:38.834Z,4.45
2022-09-16T09:56:41.928Z,3.91
2022-09-16T09:57:48.840Z,3.45
2022-09-16T09:58:42.000Z,3.74
2022-09-16T09:59:56.025Z,3.29
2022-09-16T10:00:36.975Z,3.40
2022-09-16T10:01:17.878Z,2.88
2022-09-16T10:02:04.937Z,3.22
2022-09-16T10:02:50.023Z,3.53
2022-09-16T10:03:32.960Z,2.66
2022-09-16T10:04:23.801Z,2.84
2022-09-16T10:05:03.917Z,4.24
2022-09-16T10:05:44.816Z,3.33
2022-09-16T10:06:33.934Z,3.10
2022-09-16T10:07:14.816Z,3.19
2022-09-16T10:08:02.840Z,4.64
2022-09-16T10:09:02.859Z,4.76
2022-09-16T10:10:10.830Z,2.89
2022-09-16T10:11:13.793Z,3.97
2022-09-16T10:12:09.806Z,3.80
2022-09-16T10:13:04.839Z,3.38
2022-09-16T10:14:05.852Z,3.64
2022-09-16T10:14:59.805Z,4.07
2022-09-16T10:15:55.607Z,3.36
2022-09-16T10:17:06.819Z,2.64
2022-09-16T10:18:05.853Z,2.74
2022-09-16T10:19:28.905Z,2.88
2022-09-16T10:20:38.813Z,2.99
2022-09-16T10:21:32.801Z,3.90
2022-09-16T10:22:47.806Z,4.14
2022-09-16T10:23:30.864Z,3.75
2022-09-16T10:24:11.915Z,4.10
2022-09-16T10:25:24.816Z,4.51
2022-09-16T10:26:33.131Z,4.28
2022-09-16T10:27:35.817Z,5.56
2022-09-16T10:28:39.865Z,3.31
2022-09-16T10:29:33.782Z,2.99
2022-09-16T10:30:32.772Z,2.69
2022-09-16T10:31:29.230Z,3.21
2022-09-16T10:32:31.829Z,3.80
2022-09-16T10:33:44.924Z,3.60
2022-09-16T10:34:50.794Z,1.74
2022-09-16T10:35:48.845Z,2.50
2022-09-16T10:36:47.802Z,3.30
2022-09-16T10:37:41.826Z,3.26
2022-09-16T10:38:38.796Z,3.00
2022-09-16T10:39:32.830Z,3.65
2022-09-16T10:40:23.412Z,3.15
2022-09-16T10:41:26.800Z,3.61